sensor_id;sensor_type;location;lat;lon;timestamp;P1;durP1;ratioP1;P2;durP2;ratioP2
5022;SDS011;2530;47.990;7.866;2024-02-15T13:35:15;5.28;;;3.67;;
5022;SDS011;2530;47.990;7.866;2024-02-15T13:37:46;4.53;;;3.77;;
5022;SDS011;2530;47.990;7.866;2024-02-15T13:40:12;5.57;;;3.60;;
5022;SDS011;2530;47.990;7.866;2024-02-15T13:42:44;6.07;;;3.67;;
5022;SDS011;2530;47.990;7.866;2024-02-15T13:45:30;5.93;;;3.67;;
5022;SDS011;2530;47.990;7.866;2024-02-15T13:48:02;5.20;;;3.70;;
5022;SDS011;2530;47.990;7.866;2024-02-15T13:50:30;5.25;;;3.42;;
5022;SDS011;2530;47.990;7.866;2024-02-15T13:52:56;4.00;;;3.60;;
5022;SDS011;2530;47.990;7.866;2024-02-15T13:55:25;6.35;;;3.88;;
5022;SDS011;2530;47.990;7.866;2024-02-15T13:57:51;4.85;;;3.40;;
5022;SDS011;2530;47.990;7.866;2024-02-15T14:00:17;5.78;;;3.65;;
5022;SDS011;2530;47.990;7.866;2024-02-15T14:02:47;4.72;;;3.60;;
5022;SDS011;2530;47.990;7.866;2024-02-15T14:05:13;4.53;;;3.88;;
5022;SDS011;2530;47.990;7.866;2024-02-15T14:07:39;3.70;;;3.40;;
5022;SDS011;2530;47.990;7.866;2024-02-15T14:10:05;5.18;;;3.25;;
5022;SDS011;2530;47.990;7.866;2024-02-15T14:12:32;5.45;;;3.22;;
5022;SDS011;2530;47.990;7.866;2024-02-15T14:14:57;3.80;;;3.30;;
5022;SDS011;2530;47.990;7.866;2024-02-15T14:17:23;5.97;;;3.50;;
5022;SDS011;2530;47.990;7.866;2024-02-15T14:19:49;6.65;;;3.90;;
5022;SDS011;2530;47.990;7.866;2024-02-15T14:22:14;5.82;;;3.40;;
5022;SDS011;2530;47.990;7.866;2024-02-15T14:24:43;5.78;;;4.30;;
5022;SDS011;2530;47.990;7.866;2024-02-15T14:27:09;5.35;;;3.85;;
5022;SDS011;2530;47.990;7.866;2024-02-15T14:29:35;5.53;;;3.60;;
5022;SDS011;2530;47.990;7.866;2024-02-15T14:32:05;4.78;;;4.05;;
5022;SDS011;2530;47.990;7.866;2024-02-15T14:34:50;5.65;;;3.80;;
5022;SDS011;2530;47.990;7.866;2024-02-15T14:37:16;5.80;;;3.70;;
5022;SDS011;2530;47.990;7.866;2024-02-15T14:39:42;6.32;;;3.70;;
5022;SDS011;2530;47.990;7.866;2024-02-15T14:42:08;5.05;;;3.60;;
5022;SDS011;2530;47.990;7.866;2024-02-15T14:44:33;4.10;;;3.50;;
5022;SDS011;2530;47.990;7.866;2024-02-15T14:46:59;4.77;;;3.87;;
5022;SDS011;2530;47.990;7.866;2024-02-15T14:49:25;3.63;;;3.33;;
5022;SDS011;2530;47.990;7.866;2024-02-15T14:51:50;6.03;;;4.03;;
5022;SDS011;2530;47.990;7.866;2024-02-15T14:54:17;6.40;;;3.40;;
5022;SDS011;2530;47.990;7.866;2024-02-15T14:56:44;5.07;;;3.50;;
5022;SDS011;2530;47.990;7.866;2024-02-15T14:59:10;6.22;;;3.47;;
5022;SDS011;2530;47.990;7.866;2024-02-15T15:01:36;4.95;;;2.90;;
5022;SDS011;2530;47.990;7.866;2024-02-15T15:04:02;4.63;;;3.50;;
5022;SDS011;2530;47.990;7.866;2024-02-15T15:06:30;6.00;;;3.70;;
5022;SDS011;2530;47.990;7.866;2024-02-15T15:09:15;4.90;;;3.60;;
5022;SDS011;2530;47.990;7.866;2024-02-15T15:11:59;7.95;;;4.00;;
5022;SDS011;2530;47.990;7.866;2024-02-15T15:14:43;6.97;;;3.70;;
5022;SDS011;2530;47.990;7.866;2024-02-15T15:17:10;3.83;;;3.20;;
5022;SDS011;2530;47.990;7.866;2024-02-15T15:19:37;7.50;;;3.60;;
5022;SDS011;2530;47.990;7.866;2024-02-15T15:22:05;4.18;;;3.75;;
5022;SDS011;2530;47.990;7.866;2024-02-15T15:24:32;9.10;;;3.80;;
5022;SDS011;2530;47.990;7.866;2024-02-15T15:26:58;7.07;;;3.90;;
5022;SDS011;2530;47.990;7.866;2024-02-15T15:29:24;4.90;;;3.80;;
5022;SDS011;2530;47.990;7.866;2024-02-15T15:31:50;7.00;;;4.17;;
5022;SDS011;2530;47.990;7.866;2024-02-15T15:34:16;6.30;;;3.90;;
5022;SDS011;2530;47.990;7.866;2024-02-15T15:36:44;6.13;;;4.22;;
5022;SDS011;2530;47.990;7.866;2024-02-15T15:39:11;4.63;;;4.23;;
5022;SDS011;2530;47.990;7.866;2024-02-15T15:41:37;6.63;;;4.40;;
5022;SDS011;2530;47.990;7.866;2024-02-15T15:44:03;6.30;;;5.30;;
5022;SDS011;2530;47.990;7.866;2024-02-15T15:46:29;7.45;;;5.03;;
5022;SDS011;2530;47.990;7.866;2024-02-15T15:48:55;8.55;;;6.07;;
5022;SDS011;2530;47.990;7.866;2024-02-15T15:51:21;8.95;;;6.22;;
5022;SDS011;2530;47.990;7.866;2024-02-15T15:53:46;8.20;;;5.70;;
5022;SDS011;2530;47.990;7.866;2024-02-15T15:56:14;6.17;;;5.50;;
5022;SDS011;2530;47.990;7.866;2024-02-15T15:58:41;7.28;;;5.47;;
5022;SDS011;2530;47.990;7.866;2024-02-15T16:01:10;6.55;;;5.22;;
5022;SDS011;2530;47.990;7.866;2024-02-15T16:03:35;5.35;;;4.25;;
5022;SDS011;2530;47.990;7.866;2024-02-15T16:06:01;6.10;;;4.63;;
5022;SDS011;2530;47.990;7.866;2024-02-15T16:08:28;5.40;;;4.15;;
5022;SDS011;2530;47.990;7.866;2024-02-15T16:10:53;5.30;;;4.00;;
5022;SDS011;2530;47.990;7.866;2024-02-15T16:13:21;5.60;;;4.10;;
5022;SDS011;2530;47.990;7.866;2024-02-15T16:15:48;6.90;;;4.18;;
5022;SDS011;2530;47.990;7.866;2024-02-15T16:18:17;4.30;;;3.90;;
5022;SDS011;2530;47.990;7.866;2024-02-15T16:20:43;5.13;;;3.80;;
5022;SDS011;2530;47.990;7.866;2024-02-15T16:23:10;5.15;;;4.20;;
5022;SDS011;2530;47.990;7.866;2024-02-15T16:25:36;6.60;;;4.30;;
5022;SDS011;2530;47.990;7.866;2024-02-15T16:28:01;6.35;;;3.80;;
5022;SDS011;2530;47.990;7.866;2024-02-15T16:30:31;5.57;;;3.70;;
5022;SDS011;2530;47.990;7.866;2024-02-15T16:32:57;7.20;;;4.28;;
5022;SDS011;2530;47.990;7.866;2024-02-15T16:35:23;6.28;;;4.60;;
5022;SDS011;2530;47.990;7.866;2024-02-15T16:37:49;6.63;;;4.00;;
5022;SDS011;2530;47.990;7.866;2024-02-15T16:40:14;7.33;;;4.50;;
5022;SDS011;2530;47.990;7.866;2024-02-15T16:42:42;5.05;;;4.55;;
5022;SDS011;2530;47.990;7.866;2024-02-15T16:45:09;7.18;;;4.40;;
5022;SDS011;2530;47.990;7.866;2024-02-15T16:47:36;5.43;;;3.87;;
5022;SDS011;2530;47.990;7.866;2024-02-15T16:50:02;6.93;;;4.60;;
5022;SDS011;2530;47.990;7.866;2024-02-15T16:52:32;5.85;;;4.70;;
5022;SDS011;2530;47.990;7.866;2024-02-15T16:54:58;6.90;;;4.30;;
5022;SDS011;2530;47.990;7.866;2024-02-15T16:57:24;6.20;;;4.40;;
5022;SDS011;2530;47.990;7.866;2024-02-15T16:59:50;8.32;;;7.25;;
5022;SDS011;2530;47.990;7.866;2024-02-15T17:02:15;9.23;;;8.32;;
5022;SDS011;2530;47.990;7.866;2024-02-15T17:04:41;8.80;;;7.90;;
5022;SDS011;2530;47.990;7.866;2024-02-15T17:07:06;7.77;;;6.33;;
5022;SDS011;2530;47.990;7.866;2024-02-15T17:09:32;7.40;;;5.20;;
5022;SDS011;2530;47.990;7.866;2024-02-15T17:11:57;5.20;;;3.90;;
5022;SDS011;2530;47.990;7.866;2024-02-15T17:14:23;6.10;;;4.50;;
5022;SDS011;2530;47.990;7.866;2024-02-15T17:16:49;6.93;;;4.30;;
5022;SDS011;2530;47.990;7.866;2024-02-15T17:19:15;10.55;;;5.68;;
5022;SDS011;2530;47.990;7.866;2024-02-15T17:21:41;6.80;;;4.80;;
5022;SDS011;2530;47.990;7.866;2024-02-15T17:24:09;6.47;;;4.33;;
5022;SDS011;2530;47.990;7.866;2024-02-15T17:26:43;6.95;;;4.82;;
5022;SDS011;2530;47.990;7.866;2024-02-15T17:29:09;5.90;;;4.70;;
5022;SDS011;2530;47.990;7.866;2024-02-15T17:31:36;9.60;;;4.80;;
5022;SDS011;2530;47.990;7.866;2024-02-15T17:34:02;5.88;;;4.28;;
5022;SDS011;2530;47.990;7.866;2024-02-15T17:36:30;6.30;;;4.50;;
5022;SDS011;2530;47.990;7.866;2024-02-15T17:38:55;6.82;;;4.30;;
5022;SDS011;2530;47.990;7.866;2024-02-15T17:41:21;6.43;;;4.07;;
5022;SDS011;2530;47.990;7.866;2024-02-15T17:43:47;5.70;;;5.10;;
5022;SDS011;2530;47.990;7.866;2024-02-15T17:46:13;8.67;;;5.20;;
5022;SDS011;2530;47.990;7.866;2024-02-15T17:48:38;6.53;;;4.40;;
5022;SDS011;2530;47.990;7.866;2024-02-15T17:51:04;6.33;;;4.80;;
5022;SDS011;2530;47.990;7.866;2024-02-15T17:53:30;5.80;;;4.40;;
5022;SDS011;2530;47.990;7.866;2024-02-15T17:55:55;7.90;;;4.65;;
5022;SDS011;2530;47.990;7.866;2024-02-15T17:58:24;5.90;;;4.65;;
5022;SDS011;2530;47.990;7.866;2024-02-15T18:00:50;6.57;;;4.10;;
5022;SDS011;2530;47.990;7.866;2024-02-15T18:03:17;5.00;;;4.30;;
5022;SDS011;2530;47.990;7.866;2024-02-15T18:05:42;5.80;;;4.90;;
5022;SDS011;2530;47.990;7.866;2024-02-15T18:08:12;5.82;;;4.72;;
5022;SDS011;2530;47.990;7.866;2024-02-15T18:10:42;7.23;;;4.97;;
5022;SDS011;2530;47.990;7.866;2024-02-15T18:13:07;7.97;;;4.20;;
5022;SDS011;2530;47.990;7.866;2024-02-15T18:15:34;6.57;;;4.35;;
5022;SDS011;2530;47.990;7.866;2024-02-15T18:18:04;5.37;;;4.87;;
5022;SDS011;2530;47.990;7.866;2024-02-15T18:20:30;6.15;;;4.13;;
5022;SDS011;2530;47.990;7.866;2024-02-15T18:22:56;7.65;;;4.53;;
5022;SDS011;2530;47.990;7.866;2024-02-15T18:25:21;9.80;;;5.27;;
5022;SDS011;2530;47.990;7.866;2024-02-15T18:27:50;5.93;;;4.43;;
5022;SDS011;2530;47.990;7.866;2024-02-15T18:30:15;7.70;;;4.28;;
5022;SDS011;2530;47.990;7.866;2024-02-15T18:32:45;7.35;;;4.38;;
5022;SDS011;2530;47.990;7.866;2024-02-15T18:35:10;6.20;;;4.40;;
5022;SDS011;2530;47.990;7.866;2024-02-15T18:37:37;7.43;;;4.07;;
5022;SDS011;2530;47.990;7.866;2024-02-15T18:40:03;6.03;;;4.40;;
5022;SDS011;2530;47.990;7.866;2024-02-15T18:42:34;7.63;;;4.70;;
5022;SDS011;2530;47.990;7.866;2024-02-15T18:45:04;5.90;;;4.82;;
5022;SDS011;2530;47.990;7.866;2024-02-15T18:47:31;8.05;;;5.05;;
5022;SDS011;2530;47.990;7.866;2024-02-15T18:49:57;7.40;;;5.10;;
5022;SDS011;2530;47.990;7.866;2024-02-15T18:52:24;8.18;;;5.38;;
5022;SDS011;2530;47.990;7.866;2024-02-15T18:54:52;6.00;;;4.90;;
5022;SDS011;2530;47.990;7.866;2024-02-15T18:57:22;7.65;;;5.10;;
5022;SDS011;2530;47.990;7.866;2024-02-15T18:59:50;5.88;;;5.28;;
5022;SDS011;2530;47.990;7.866;2024-02-15T19:02:16;6.90;;;5.40;;
5022;SDS011;2530;47.990;7.866;2024-02-15T19:04:48;5.72;;;5.13;;
5022;SDS011;2530;47.990;7.866;2024-02-15T19:07:14;8.80;;;5.85;;
5022;SDS011;2530;47.990;7.866;2024-02-15T19:09:40;7.18;;;5.90;;
5022;SDS011;2530;47.990;7.866;2024-02-15T19:12:06;9.77;;;6.38;;
5022;SDS011;2530;47.990;7.866;2024-02-15T19:14:35;8.57;;;6.13;;
5022;SDS011;2530;47.990;7.866;2024-02-15T19:17:01;10.65;;;5.60;;
5022;SDS011;2530;47.990;7.866;2024-02-15T19:19:27;11.13;;;7.20;;
5022;SDS011;2530;47.990;7.866;2024-02-15T19:21:52;6.87;;;5.87;;
5022;SDS011;2530;47.990;7.866;2024-02-15T19:24:18;9.33;;;6.30;;
5022;SDS011;2530;47.990;7.866;2024-02-15T19:26:44;7.03;;;6.32;;
5022;SDS011;2530;47.990;7.866;2024-02-15T19:29:11;7.53;;;6.23;;
5022;SDS011;2530;47.990;7.866;2024-02-15T19:31:37;6.80;;;6.10;;
5022;SDS011;2530;47.990;7.866;2024-02-15T19:34:06;7.38;;;5.80;;
5022;SDS011;2530;47.990;7.866;2024-02-15T19:36:32;9.05;;;6.40;;
5022;SDS011;2530;47.990;7.866;2024-02-15T19:39:02;7.32;;;6.40;;
5022;SDS011;2530;47.990;7.866;2024-02-15T19:41:35;10.43;;;6.50;;
5022;SDS011;2530;47.990;7.866;2024-02-15T19:44:04;7.85;;;6.43;;
5022;SDS011;2530;47.990;7.866;2024-02-15T19:46:30;9.13;;;6.50;;
5022;SDS011;2530;47.990;7.866;2024-02-15T19:48:57;8.98;;;6.25;;
5022;SDS011;2530;47.990;7.866;2024-02-15T19:51:22;8.38;;;6.63;;
5022;SDS011;2530;47.990;7.866;2024-02-15T19:53:48;9.37;;;6.53;;
5022;SDS011;2530;47.990;7.866;2024-02-15T19:56:15;8.43;;;6.82;;
5022;SDS011;2530;47.990;7.866;2024-02-15T19:58:41;8.80;;;6.50;;
5022;SDS011;2530;47.990;7.866;2024-02-15T20:01:06;7.32;;;5.88;;
5022;SDS011;2530;47.990;7.866;2024-02-15T20:03:32;6.63;;;5.93;;
5022;SDS011;2530;47.990;7.866;2024-02-15T20:05:58;6.60;;;5.90;;
5022;SDS011;2530;47.990;7.866;2024-02-15T20:08:26;7.37;;;6.20;;
5022;SDS011;2530;47.990;7.866;2024-02-15T20:10:52;7.07;;;6.38;;
5022;SDS011;2530;47.990;7.866;2024-02-15T20:13:24;8.88;;;6.20;;
5022;SDS011;2530;47.990;7.866;2024-02-15T20:15:50;9.38;;;6.50;;
5022;SDS011;2530;47.990;7.866;2024-02-15T20:18:18;7.57;;;6.30;;
5022;SDS011;2530;47.990;7.866;2024-02-15T20:20:45;10.55;;;7.00;;
5022;SDS011;2530;47.990;7.866;2024-02-15T20:23:13;8.70;;;6.07;;
5022;SDS011;2530;47.990;7.866;2024-02-15T20:25:39;7.78;;;5.40;;
5022;SDS011;2530;47.990;7.866;2024-02-15T20:28:06;7.63;;;5.70;;
5022;SDS011;2530;47.990;7.866;2024-02-15T20:30:32;7.30;;;5.70;;
5022;SDS011;2530;47.990;7.866;2024-02-15T20:32:57;8.43;;;5.70;;
5022;SDS011;2530;47.990;7.866;2024-02-15T20:35:24;9.10;;;5.90;;
5022;SDS011;2530;47.990;7.866;2024-02-15T20:37:51;6.75;;;5.90;;
5022;SDS011;2530;47.990;7.866;2024-02-15T20:40:17;8.60;;;5.93;;
5022;SDS011;2530;47.990;7.866;2024-02-15T20:42:43;8.80;;;7.00;;
5022;SDS011;2530;47.990;7.866;2024-02-15T20:45:09;9.45;;;7.45;;
5022;SDS011;2530;47.990;7.866;2024-02-15T20:47:35;10.33;;;7.73;;
5022;SDS011;2530;47.990;7.866;2024-02-15T20:50:01;9.70;;;7.60;;
5022;SDS011;2530;47.990;7.866;2024-02-15T20:52:26;11.95;;;7.68;;
5022;SDS011;2530;47.990;7.866;2024-02-15T20:54:53;8.00;;;7.00;;
5022;SDS011;2530;47.990;7.866;2024-02-15T20:57:18;9.23;;;7.70;;
5022;SDS011;2530;47.990;7.866;2024-02-15T20:59:43;9.73;;;7.37;;
5022;SDS011;2530;47.990;7.866;2024-02-15T21:02:09;8.57;;;7.20;;
5022;SDS011;2530;47.990;7.866;2024-02-15T21:04:35;8.05;;;6.07;;
5022;SDS011;2530;47.990;7.866;2024-02-15T21:07:01;7.47;;;5.80;;
5022;SDS011;2530;47.990;7.866;2024-02-15T21:09:27;5.30;;;4.80;;
5022;SDS011;2530;47.990;7.866;2024-02-15T21:11:52;6.20;;;5.05;;
5022;SDS011;2530;47.990;7.866;2024-02-15T21:14:20;8.73;;;4.77;;
5022;SDS011;2530;47.990;7.866;2024-02-15T21:16:46;5.87;;;4.50;;
5022;SDS011;2530;47.990;7.866;2024-02-15T21:19:11;4.88;;;4.07;;
5022;SDS011;2530;47.990;7.866;2024-02-15T21:21:37;7.10;;;4.20;;
5022;SDS011;2530;47.990;7.866;2024-02-15T21:24:03;7.32;;;4.03;;
5022;SDS011;2530;47.990;7.866;2024-02-15T21:26:30;5.70;;;4.05;;
5022;SDS011;2530;47.990;7.866;2024-02-15T21:28:55;6.40;;;4.00;;
5022;SDS011;2530;47.990;7.866;2024-02-15T21:31:21;6.20;;;4.32;;
5022;SDS011;2530;47.990;7.866;2024-02-15T21:33:50;4.25;;;3.95;;
5022;SDS011;2530;47.990;7.866;2024-02-15T21:36:18;5.13;;;4.43;;
5022;SDS011;2530;47.990;7.866;2024-02-15T21:38:44;5.85;;;4.72;;
5022;SDS011;2530;47.990;7.866;2024-02-15T21:41:10;6.72;;;5.22;;
5022;SDS011;2530;47.990;7.866;2024-02-15T21:43:36;6.33;;;4.70;;
5022;SDS011;2530;47.990;7.866;2024-02-15T21:46:02;7.87;;;5.40;;
5022;SDS011;2530;47.990;7.866;2024-02-15T21:48:31;7.50;;;5.25;;
5022;SDS011;2530;47.990;7.866;2024-02-15T21:50:57;4.70;;;4.30;;
5022;SDS011;2530;47.990;7.866;2024-02-15T21:53:23;5.50;;;4.90;;
5022;SDS011;2530;47.990;7.866;2024-02-15T21:55:49;6.87;;;4.60;;
5022;SDS011;2530;47.990;7.866;2024-02-15T21:58:14;6.77;;;4.67;;
5022;SDS011;2530;47.990;7.866;2024-02-15T22:00:40;4.90;;;4.40;;
5022;SDS011;2530;47.990;7.866;2024-02-15T22:03:06;8.90;;;4.90;;
5022;SDS011;2530;47.990;7.866;2024-02-15T22:05:36;6.72;;;4.72;;
5022;SDS011;2530;47.990;7.866;2024-02-15T22:08:02;4.55;;;3.90;;
5022;SDS011;2530;47.990;7.866;2024-02-15T22:10:28;6.05;;;4.00;;
5022;SDS011;2530;47.990;7.866;2024-02-15T22:12:53;4.93;;;4.20;;
5022;SDS011;2530;47.990;7.866;2024-02-15T22:15:19;5.43;;;4.40;;
5022;SDS011;2530;47.990;7.866;2024-02-15T22:17:44;4.90;;;4.40;;
5022;SDS011;2530;47.990;7.866;2024-02-15T22:20:10;5.23;;;4.13;;
5022;SDS011;2530;47.990;7.866;2024-02-15T22:22:37;5.63;;;4.70;;
5022;SDS011;2530;47.990;7.866;2024-02-15T22:25:04;6.38;;;4.55;;
5022;SDS011;2530;47.990;7.866;2024-02-15T22:27:33;4.85;;;4.30;;
5022;SDS011;2530;47.990;7.866;2024-02-15T22:29:58;5.93;;;4.60;;
5022;SDS011;2530;47.990;7.866;2024-02-15T22:32:24;6.33;;;4.50;;
5022;SDS011;2530;47.990;7.866;2024-02-15T22:34:50;6.15;;;5.00;;
5022;SDS011;2530;47.990;7.866;2024-02-15T22:37:17;7.63;;;5.57;;
5022;SDS011;2530;47.990;7.866;2024-02-15T22:39:43;6.70;;;5.80;;
5022;SDS011;2530;47.990;7.866;2024-02-15T22:42:09;6.50;;;5.40;;
5022;SDS011;2530;47.990;7.866;2024-02-15T22:44:35;5.67;;;5.03;;
5022;SDS011;2530;47.990;7.866;2024-02-15T22:47:01;6.00;;;4.75;;
5022;SDS011;2530;47.990;7.866;2024-02-15T22:49:27;5.05;;;4.63;;
5022;SDS011;2530;47.990;7.866;2024-02-15T22:51:53;6.83;;;5.40;;
5022;SDS011;2530;47.990;7.866;2024-02-15T22:54:19;6.05;;;4.90;;
5022;SDS011;2530;47.990;7.866;2024-02-15T22:56:45;6.40;;;5.10;;
5022;SDS011;2530;47.990;7.866;2024-02-15T22:59:10;5.83;;;4.97;;
5022;SDS011;2530;47.990;7.866;2024-02-15T23:01:37;5.63;;;5.03;;
5022;SDS011;2530;47.990;7.866;2024-02-15T23:04:05;7.37;;;5.13;;
5022;SDS011;2530;47.990;7.866;2024-02-15T23:06:32;5.30;;;4.73;;
5022;SDS011;2530;47.990;7.866;2024-02-15T23:08:58;5.28;;;4.40;;
5022;SDS011;2530;47.990;7.866;2024-02-15T23:11:24;5.05;;;4.50;;
5022;SDS011;2530;47.990;7.866;2024-02-15T23:13:50;4.53;;;3.77;;
5022;SDS011;2530;47.990;7.866;2024-02-15T23:16:15;5.72;;;4.32;;
5022;SDS011;2530;47.990;7.866;2024-02-15T23:18:41;5.65;;;3.90;;
5022;SDS011;2530;47.990;7.866;2024-02-15T23:21:07;4.50;;;3.33;;
5022;SDS011;2530;47.990;7.866;2024-02-15T23:23:32;4.27;;;3.30;;
5022;SDS011;2530;47.990;7.866;2024-02-15T23:25:59;4.30;;;3.47;;
5022;SDS011;2530;47.990;7.866;2024-02-15T23:28:26;3.88;;;3.30;;
5022;SDS011;2530;47.990;7.866;2024-02-15T23:30:51;4.35;;;2.90;;
5022;SDS011;2530;47.990;7.866;2024-02-15T23:33:17;3.70;;;2.70;;
5022;SDS011;2530;47.990;7.866;2024-02-15T23:35:46;3.15;;;2.85;;
5022;SDS011;2530;47.990;7.866;2024-02-15T23:38:32;4.88;;;2.28;;
5022;SDS011;2530;47.990;7.866;2024-02-15T23:41:16;2.78;;;2.47;;
5022;SDS011;2530;47.990;7.866;2024-02-15T23:43:42;3.63;;;2.87;;
5022;SDS011;2530;47.990;7.866;2024-02-15T23:46:08;4.00;;;2.45;;
5022;SDS011;2530;47.990;7.866;2024-02-15T23:48:35;3.22;;;2.85;;
5022;SDS011;2530;47.990;7.866;2024-02-15T23:51:01;5.00;;;2.58;;
5022;SDS011;2530;47.990;7.866;2024-02-15T23:53:27;4.23;;;3.20;;
5022;SDS011;2530;47.990;7.866;2024-02-15T23:55:52;3.70;;;2.30;;
5022;SDS011;2530;47.990;7.866;2024-02-15T23:58:18;3.25;;;2.10;;
